Flight Track Log - Related Links

Times and Time Zones

All times are in EDT time to prevent confusion due to time zone crossing. See the UAL4663 flight status page for this flight to view local times or setup timezone preferences in your user account.

Time Position Orientation Groundspeed Altitude Reporting Facility
EDT Latitude Longitude Course Direction KTS MPH feet Rate Location/Type
Mon 06:10:50 PM 40.6500 -74.1833 180° South 162 186 2,000  Level New York TRACON
Mon 06:11:44 PM 40.6167 -74.2167 217° Southwest 205 236 3,500 2,000 Climbing New York TRACON
Mon 06:12:44 PM 40.5500 -74.2667 210° Southwest 245 282 5,800 1,300 Climbing New York TRACON
Mon 06:13:44 PM 40.4833 -74.2500 169° South 249 287 6,100 386 Climbing New York TRACON
Mon 06:14:00 PM 40.3056 -74.1528 159° South  Level FlightAware Approximate
Mon 06:15:00 PM 40.2048 -74.1817 194° South  Level FlightAware Approximate
Mon 06:16:00 PM 40.1048 -74.2167 180° South  Level FlightAware Approximate
Mon 06:16:06 PM 40.3364 -74.2100 168° South 241 277 7,100  Level New York Center
Mon 06:17:04 PM 40.2653 -74.2200 186° South 250 288 8,700 1,330 Climbing New York Center
Mon 06:19:29 PM 40.0539 -74.2444 185° South 328 377 11,600 1,252 Climbing Washington Center
Mon 06:20:30 PM 39.9647 -74.2975 205° Southwest 352 405 13,000 1,400 Climbing Washington Center
Mon 06:21:29 PM 39.8844 -74.3719 215° Southwest 363 418 14,400 1,282 Climbing Washington Center
Mon 06:22:27 PM 39.8183 -74.4325 215° Southwest 370 426 15,500 1,261 Climbing Washington Center
Mon 06:23:28 PM 39.7422 -74.5336 226° Southwest 365 420 16,900 1,289 Climbing Washington Center
Mon 06:24:28 PM 39.6722 -74.6264 226° Southwest 365 420 18,100 1,240 Climbing Washington Center
Mon 06:25:29 PM 39.6019 -74.7189 225° Southwest 365 420 19,400 1,328 Climbing Washington Center
Mon 06:26:30 PM 39.5317 -74.8114 225° Southwest 365 420 20,800 1,388 Climbing Washington Center
Mon 06:27:30 PM 39.4614 -74.9033 225° Southwest 360 414 22,200 1,424 Climbing Washington Center
Mon 06:28:28 PM 39.3933 -74.9928 225° Southwest 354 407 23,600 908 Climbing Washington Center
Mon 06:29:29 PM 39.3228 -75.0819 224° Southwest 354 407 24,000 198 Climbing Washington Center
Mon 06:30:29 PM 39.2461 -75.1842 226° Southwest 373 429 24,000  Level Washington Center
Mon 06:31:30 PM 39.1650 -75.2864 224° Southwest 390 449 24,000  Level Washington Center
Mon 06:32:30 PM 39.0819 -75.3939 225° Southwest 411 473 24,000  Level Washington Center
Mon 06:33:28 PM 38.9986 -75.5036 226° Southwest 421 484 24,000  Level Washington Center
Mon 06:34:28 PM 38.9111 -75.6103 224° Southwest 432 497 24,000  Level Washington Center
Mon 06:35:29 PM 38.8131 -75.7061 217° Southwest 445 512 24,000  Level Washington Center
Mon 06:36:30 PM 38.7192 -75.8019 219° Southwest 445 512 24,000  Level Washington Center
Mon 06:37:28 PM 38.6211 -75.8892 215° Southwest 445 512 24,000  Level Washington Center
Mon 06:38:28 PM 38.5292 -75.9792 217° Southwest 438 504 24,000  Level Washington Center
Mon 06:39:29 PM 38.4328 -76.0689 216° Southwest 432 497 24,000  Level Washington Center
Mon 06:40:29 PM 38.3303 -76.1714 218° Southwest 432 497 24,000  Level Washington Center
Mon 06:41:30 PM 38.2486 -76.2500 217° Southwest 426 490 24,000 -198 Level Washington Center
Mon 06:42:30 PM 38.1564 -76.3364 216° Southwest 421 484 23,600 -763 Descending Washington Center
Mon 06:43:28 PM 38.0661 -76.4253 218° Southwest 421 484 22,500 -814 Descending Washington Center
Mon 06:44:28 PM 37.9717 -76.5136 216° Southwest 421 484 22,000 -248 Descending Washington Center
Mon 06:45:29 PM 37.8750 -76.6019 216° Southwest 421 484 22,000  Level Washington Center
Mon 06:46:29 PM 37.7803 -76.6928 217° Southwest 421 484 22,000  Level Washington Center
Mon 06:47:30 PM 37.6875 -76.7831 218° Southwest 421 484 22,000  Level Washington Center
Mon 06:48:28 PM 37.5908 -76.8708 216° Southwest 426 490 22,000 -700 Level Washington Center
Mon 06:49:30 PM 37.4981 -76.9608 218° Southwest 404 465 20,600 -2,000 Descending Washington Center
Mon 06:50:28 PM 37.4158 -77.0378 217° Southwest 378 435 18,000 -3,203 Descending Washington Center
Mon 06:51:28 PM 37.3272 -77.1144 215° Southwest 389 448 14,300 -2,926 Descending Washington Center
Mon 06:52:29 PM 37.2389 -77.1781 210° Southwest 389 448 12,100 -1,636 Descending Washington Center
Mon 06:53:29 PM 37.1567 -77.2361 209° Southwest 361 415 11,000 -545 Descending Washington Center
Mon 06:54:30 PM 37.0722 -77.2969 210° Southwest 354 407 11,000 -397 Level Washington Center
Mon 06:55:30 PM 37.0047 -77.3656 219° Southwest 354 407 10,200 -508 Descending Washington Center
Mon 06:56:28 PM 36.9389 -77.4394 222° Southwest 340 391 10,000 -102 Descending Washington Center
Mon 06:57:28 PM 36.8753 -77.5003 217° Southwest 317 365 10,000 50 Level Washington Center
Mon 06:58:29 PM 36.8036 -77.5531 211° Southwest 307 353 10,100  Climbing Washington Center
Mon 06:59:30 PM 36.7258 -77.5872 199° South 297 342 10,000  Descending Washington Center
Mon 07:00:30 PM 36.6539 -77.6372 209° Southwest 297 342 10,100  Climbing Washington Center
Mon 07:01:30 PM 36.5881 -77.7028 219° Southwest 297 342 10,000 -51 Descending Washington Center
Mon 07:02:28 PM 36.5200 -77.7861 225° Southwest 321 369 10,000 51 Level Washington Center
Mon 07:03:28 PM 36.4561 -77.8567 222° Southwest 326 375 10,100 49 Climbing Washington Center
Mon 07:04:30 PM 36.3878 -77.9347 223° Southwest 313 360 10,100 -56 Level Washington Center
Mon 07:05:15 PM 36.3322 -77.9925 220° Southwest 320 368 10,000 -100 Descending Washington Center
Mon 07:05:30 PM 36.3217 -78.0075 229° Southwest 313 360 10,000 98 Level Washington Center
Mon 07:06:16 PM 36.2683 -78.0625 220° Southwest 315 362 10,100 50 Climbing Washington Center
Mon 07:07:29 PM 36.1872 -78.1528 222° Southwest 323 372 10,100 -94 Level Washington Center
Mon 07:08:24 PM 36.1522 -78.2286 240° Southwest 279 321 9,900 -1,034 Descending Washington Center
Mon 07:09:25 PM 36.1356 -78.3156 257° West 249 287 8,100 -1,426 Descending Washington Center
Mon 07:10:26 PM 36.1419 -78.4006 275° West 249 287 7,000 -492 Descending Washington Center
Mon 07:11:27 PM 36.1233 -78.4797 254° West 245 282 7,100 -435 Climbing Washington Center
Mon 07:12:30 PM 36.0717 -78.5422 224° Southwest 248 285 6,100 -864 Descending Washington Center
Mon 07:13:25 PM 36.0331 -78.5894 225° Southwest 199 229 5,400 -931 Descending Washington Center
Mon 07:14:26 PM 35.9942 -78.6392 226° Southwest 193 222 4,300 -1,357 Descending Washington Center
Mon 07:15:20 PM 35.9578 -78.6817 223° Southwest 199 229 2,800 -1,345 Descending Washington Center
Mon 07:16:22 PM 35.9231 -78.7289 228° Southwest 185 213 1,700 -1,065 Descending Washington Center

Login

Don't have an account? Register now (free) for customized features, flight alerts, and more!